sensor_id;sensor_type;location;lat;lon;timestamp;temperature;humidity
15819;DHT22;8010;53.986;12.106;2023-07-09T00:00:51;15.80;99.90
15819;DHT22;8010;53.986;12.106;2023-07-09T00:03:18;15.80;99.90
15819;DHT22;8010;53.986;12.106;2023-07-09T00:05:47;15.70;99.90
15819;DHT22;8010;53.986;12.106;2023-07-09T00:08:28;15.70;99.90
15819;DHT22;8010;53.986;12.106;2023-07-09T00:10:58;15.60;99.90
15819;DHT22;8010;53.986;12.106;2023-07-09T00:13:25;15.60;99.90
15819;DHT22;8010;53.986;12.106;2023-07-09T00:15:52;15.70;99.90
15819;DHT22;8010;53.986;12.106;2023-07-09T00:18:18;15.40;99.90
15819;DHT22;8010;53.986;12.106;2023-07-09T00:20:44;15.30;99.90
15819;DHT22;8010;53.986;12.106;2023-07-09T00:23:10;15.30;99.90
15819;DHT22;8010;53.986;12.106;2023-07-09T00:25:40;15.20;99.90
15819;DHT22;8010;53.986;12.106;2023-07-09T00:28:13;15.10;99.90
15819;DHT22;8010;53.986;12.106;2023-07-09T00:30:39;15.00;99.90
15819;DHT22;8010;53.986;12.106;2023-07-09T00:33:04;14.90;99.90
15819;DHT22;8010;53.986;12.106;2023-07-09T00:35:30;14.70;99.90
15819;DHT22;8010;53.986;12.106;2023-07-09T00:37:56;14.70;99.90
15819;DHT22;8010;53.986;12.106;2023-07-09T00:40:25;14.60;99.90
15819;DHT22;8010;53.986;12.106;2023-07-09T00:42:54;14.50;99.90
15819;DHT22;8010;53.986;12.106;2023-07-09T00:45:24;14.50;99.90
15819;DHT22;8010;53.986;12.106;2023-07-09T00:47:57;14.50;99.90
15819;DHT22;8010;53.986;12.106;2023-07-09T00:50:52;14.40;99.90
15819;DHT22;8010;53.986;12.106;2023-07-09T00:53:27;14.40;99.90
15819;DHT22;8010;53.986;12.106;2023-07-09T00:55:59;14.30;99.90
15819;DHT22;8010;53.986;12.106;2023-07-09T00:58:27;14.20;99.90
15819;DHT22;8010;53.986;12.106;2023-07-09T01:00:56;14.10;99.90
15819;DHT22;8010;53.986;12.106;2023-07-09T01:03:34;14.10;99.90
15819;DHT22;8010;53.986;12.106;2023-07-09T01:06:00;14.10;99.90
15819;DHT22;8010;53.986;12.106;2023-07-09T01:08:28;14.00;99.90
15819;DHT22;8010;53.986;12.106;2023-07-09T01:10:56;13.90;99.90
15819;DHT22;8010;53.986;12.106;2023-07-09T01:13:22;13.90;99.90
15819;DHT22;8010;53.986;12.106;2023-07-09T01:15:48;13.90;99.90
15819;DHT22;8010;53.986;12.106;2023-07-09T01:18:14;13.80;99.90
15819;DHT22;8010;53.986;12.106;2023-07-09T01:20:40;13.80;99.90
15819;DHT22;8010;53.986;12.106;2023-07-09T01:23:06;13.70;99.90
15819;DHT22;8010;53.986;12.106;2023-07-09T01:25:32;13.70;99.90
15819;DHT22;8010;53.986;12.106;2023-07-09T01:27:58;13.70;99.90
15819;DHT22;8010;53.986;12.106;2023-07-09T01:30:30;13.60;99.90
15819;DHT22;8010;53.986;12.106;2023-07-09T01:32:58;13.60;99.90
15819;DHT22;8010;53.986;12.106;2023-07-09T01:35:27;13.60;99.90
15819;DHT22;8010;53.986;12.106;2023-07-09T01:37:54;13.50;99.90
15819;DHT22;8010;53.986;12.106;2023-07-09T01:40:22;13.40;99.90
15819;DHT22;8010;53.986;12.106;2023-07-09T01:42:50;13.40;99.90
15819;DHT22;8010;53.986;12.106;2023-07-09T01:45:16;13.30;99.90
15819;DHT22;8010;53.986;12.106;2023-07-09T01:47:42;13.30;99.90
15819;DHT22;8010;53.986;12.106;2023-07-09T01:50:09;13.20;99.90
15819;DHT22;8010;53.986;12.106;2023-07-09T01:52:38;13.20;99.90
15819;DHT22;8010;53.986;12.106;2023-07-09T01:55:07;13.10;99.90
15819;DHT22;8010;53.986;12.106;2023-07-09T01:57:33;13.10;99.90
15819;DHT22;8010;53.986;12.106;2023-07-09T02:00:04;13.10;99.90
15819;DHT22;8010;53.986;12.106;2023-07-09T02:02:31;13.10;99.90
15819;DHT22;8010;53.986;12.106;2023-07-09T02:04:58;13.10;99.90
15819;DHT22;8010;53.986;12.106;2023-07-09T02:07:24;13.00;99.90
15819;DHT22;8010;53.986;12.106;2023-07-09T02:09:50;13.00;99.90
15819;DHT22;8010;53.986;12.106;2023-07-09T02:12:17;13.00;99.90
15819;DHT22;8010;53.986;12.106;2023-07-09T02:14:44;13.00;99.90
15819;DHT22;8010;53.986;12.106;2023-07-09T02:17:11;12.90;99.90
15819;DHT22;8010;53.986;12.106;2023-07-09T02:19:37;12.90;99.90
15819;DHT22;8010;53.986;12.106;2023-07-09T02:22:03;12.90;99.90
15819;DHT22;8010;53.986;12.106;2023-07-09T02:24:29;12.90;99.90
15819;DHT22;8010;53.986;12.106;2023-07-09T02:26:59;12.90;99.90
15819;DHT22;8010;53.986;12.106;2023-07-09T02:29:26;12.80;99.90
15819;DHT22;8010;53.986;12.106;2023-07-09T02:31:54;12.90;99.90
15819;DHT22;8010;53.986;12.106;2023-07-09T02:34:20;12.90;99.90
15819;DHT22;8010;53.986;12.106;2023-07-09T02:36:46;12.90;99.90
15819;DHT22;8010;53.986;12.106;2023-07-09T02:39:13;12.90;99.90
15819;DHT22;8010;53.986;12.106;2023-07-09T02:41:40;12.90;99.90
15819;DHT22;8010;53.986;12.106;2023-07-09T02:44:06;12.90;99.90
15819;DHT22;8010;53.986;12.106;2023-07-09T02:46:32;12.90;99.90
15819;DHT22;8010;53.986;12.106;2023-07-09T02:48:57;12.90;99.90
15819;DHT22;8010;53.986;12.106;2023-07-09T02:51:23;12.80;99.90
15819;DHT22;8010;53.986;12.106;2023-07-09T02:53:53;12.80;99.90
15819;DHT22;8010;53.986;12.106;2023-07-09T02:56:19;12.90;99.90
15819;DHT22;8010;53.986;12.106;2023-07-09T02:58:44;12.90;99.90
15819;DHT22;8010;53.986;12.106;2023-07-09T03:01:10;12.90;99.90
15819;DHT22;8010;53.986;12.106;2023-07-09T03:03:35;12.90;99.90
15819;DHT22;8010;53.986;12.106;2023-07-09T03:06:01;12.90;99.90
15819;DHT22;8010;53.986;12.106;2023-07-09T03:08:26;12.80;99.90
15819;DHT22;8010;53.986;12.106;2023-07-09T03:10:52;12.80;99.90
15819;DHT22;8010;53.986;12.106;2023-07-09T03:13:17;12.80;99.90
15819;DHT22;8010;53.986;12.106;2023-07-09T03:15:43;12.80;99.90
15819;DHT22;8010;53.986;12.106;2023-07-09T03:18:08;12.70;99.90
15819;DHT22;8010;53.986;12.106;2023-07-09T03:20:34;12.70;99.90
15819;DHT22;8010;53.986;12.106;2023-07-09T03:22:59;12.70;99.90
15819;DHT22;8010;53.986;12.106;2023-07-09T03:25:25;12.60;99.90
15819;DHT22;8010;53.986;12.106;2023-07-09T03:27:50;12.60;99.90
15819;DHT22;8010;53.986;12.106;2023-07-09T03:30:16;12.70;99.90
15819;DHT22;8010;53.986;12.106;2023-07-09T03:32:43;12.70;99.90
15819;DHT22;8010;53.986;12.106;2023-07-09T03:35:09;12.70;99.90
15819;DHT22;8010;53.986;12.106;2023-07-09T03:37:34;12.80;99.90
15819;DHT22;8010;53.986;12.106;2023-07-09T03:40:00;12.80;99.90
15819;DHT22;8010;53.986;12.106;2023-07-09T03:42:25;12.80;99.90
15819;DHT22;8010;53.986;12.106;2023-07-09T03:44:51;12.80;99.90
15819;DHT22;8010;53.986;12.106;2023-07-09T03:47:16;12.90;99.90
15819;DHT22;8010;53.986;12.106;2023-07-09T03:49:43;12.90;99.90
15819;DHT22;8010;53.986;12.106;2023-07-09T03:52:09;12.90;99.90
15819;DHT22;8010;53.986;12.106;2023-07-09T03:54:34;12.90;99.90
15819;DHT22;8010;53.986;12.106;2023-07-09T03:57:00;12.90;99.90
15819;DHT22;8010;53.986;12.106;2023-07-09T03:59:25;13.00;99.90
15819;DHT22;8010;53.986;12.106;2023-07-09T04:01:51;13.00;99.90
15819;DHT22;8010;53.986;12.106;2023-07-09T04:04:16;13.10;99.90
15819;DHT22;8010;53.986;12.106;2023-07-09T04:06:46;13.10;99.90
15819;DHT22;8010;53.986;12.106;2023-07-09T04:09:12;13.20;99.90
15819;DHT22;8010;53.986;12.106;2023-07-09T04:11:37;13.20;99.90
15819;DHT22;8010;53.986;12.106;2023-07-09T04:14:03;13.20;99.90
15819;DHT22;8010;53.986;12.106;2023-07-09T04:16:28;13.30;99.90
15819;DHT22;8010;53.986;12.106;2023-07-09T04:18:53;13.30;99.90
15819;DHT22;8010;53.986;12.106;2023-07-09T04:21:19;13.30;99.90
15819;DHT22;8010;53.986;12.106;2023-07-09T04:23:44;13.40;99.90
15819;DHT22;8010;53.986;12.106;2023-07-09T04:26:14;13.40;99.90
15819;DHT22;8010;53.986;12.106;2023-07-09T04:28:39;13.50;99.90
15819;DHT22;8010;53.986;12.106;2023-07-09T04:31:05;13.50;99.90
15819;DHT22;8010;53.986;12.106;2023-07-09T04:33:31;13.60;99.90
15819;DHT22;8010;53.986;12.106;2023-07-09T04:35:57;13.70;99.90
15819;DHT22;8010;53.986;12.106;2023-07-09T04:38:23;13.80;99.90
15819;DHT22;8010;53.986;12.106;2023-07-09T04:40:48;13.80;99.90
15819;DHT22;8010;53.986;12.106;2023-07-09T04:43:14;13.90;99.90
15819;DHT22;8010;53.986;12.106;2023-07-09T04:45:40;14.00;99.90
15819;DHT22;8010;53.986;12.106;2023-07-09T04:48:06;14.10;99.90
15819;DHT22;8010;53.986;12.106;2023-07-09T04:50:31;14.20;99.90
15819;DHT22;8010;53.986;12.106;2023-07-09T04:52:58;14.30;99.90
15819;DHT22;8010;53.986;12.106;2023-07-09T04:55:23;14.40;99.90
15819;DHT22;8010;53.986;12.106;2023-07-09T04:57:49;14.50;99.90
15819;DHT22;8010;53.986;12.106;2023-07-09T05:00:15;14.60;99.90
15819;DHT22;8010;53.986;12.106;2023-07-09T05:02:40;14.70;99.90
15819;DHT22;8010;53.986;12.106;2023-07-09T05:05:06;14.80;99.90
15819;DHT22;8010;53.986;12.106;2023-07-09T05:07:32;15.00;99.90
15819;DHT22;8010;53.986;12.106;2023-07-09T05:09:58;15.10;99.90
15819;DHT22;8010;53.986;12.106;2023-07-09T05:12:27;15.30;99.90
15819;DHT22;8010;53.986;12.106;2023-07-09T05:14:52;15.40;99.90
15819;DHT22;8010;53.986;12.106;2023-07-09T05:17:19;15.50;99.90
15819;DHT22;8010;53.986;12.106;2023-07-09T05:19:45;15.70;99.90
15819;DHT22;8010;53.986;12.106;2023-07-09T05:22:10;15.80;99.90
15819;DHT22;8010;53.986;12.106;2023-07-09T05:24:36;16.00;99.90
15819;DHT22;8010;53.986;12.106;2023-07-09T05:27:01;16.10;99.90
15819;DHT22;8010;53.986;12.106;2023-07-09T05:29:27;16.20;99.90
15819;DHT22;8010;53.986;12.106;2023-07-09T05:31:53;16.40;99.90
15819;DHT22;8010;53.986;12.106;2023-07-09T05:34:18;16.50;99.90
15819;DHT22;8010;53.986;12.106;2023-07-09T05:36:44;16.60;99.90
15819;DHT22;8010;53.986;12.106;2023-07-09T05:39:10;16.70;99.90
15819;DHT22;8010;53.986;12.106;2023-07-09T05:41:35;16.90;99.90
15819;DHT22;8010;53.986;12.106;2023-07-09T05:44:01;17.00;99.90
15819;DHT22;8010;53.986;12.106;2023-07-09T05:46:27;17.20;99.90
15819;DHT22;8010;53.986;12.106;2023-07-09T05:48:53;17.40;99.90
15819;DHT22;8010;53.986;12.106;2023-07-09T05:51:18;17.50;99.90
15819;DHT22;8010;53.986;12.106;2023-07-09T05:53:44;17.60;99.90
15819;DHT22;8010;53.986;12.106;2023-07-09T05:56:10;17.80;99.90
15819;DHT22;8010;53.986;12.106;2023-07-09T05:58:36;17.90;99.90
15819;DHT22;8010;53.986;12.106;2023-07-09T06:01:02;18.00;99.90
15819;DHT22;8010;53.986;12.106;2023-07-09T06:03:29;18.20;99.90
15819;DHT22;8010;53.986;12.106;2023-07-09T06:05:55;18.30;99.90
15819;DHT22;8010;53.986;12.106;2023-07-09T06:08:22;18.50;99.90
15819;DHT22;8010;53.986;12.106;2023-07-09T06:10:56;18.60;99.90
15819;DHT22;8010;53.986;12.106;2023-07-09T06:13:22;18.70;99.90
15819;DHT22;8010;53.986;12.106;2023-07-09T06:15:51;18.90;99.90
15819;DHT22;8010;53.986;12.106;2023-07-09T06:18:17;19.00;99.90
15819;DHT22;8010;53.986;12.106;2023-07-09T06:20:55;19.20;99.90
15819;DHT22;8010;53.986;12.106;2023-07-09T06:23:21;19.30;99.90
15819;DHT22;8010;53.986;12.106;2023-07-09T06:25:47;19.50;99.90
15819;DHT22;8010;53.986;12.106;2023-07-09T06:28:15;19.60;99.90
15819;DHT22;8010;53.986;12.106;2023-07-09T06:30:41;19.70;99.90
15819;DHT22;8010;53.986;12.106;2023-07-09T06:33:07;19.80;99.90
15819;DHT22;8010;53.986;12.106;2023-07-09T06:35:32;19.80;99.90
15819;DHT22;8010;53.986;12.106;2023-07-09T06:37:58;19.90;99.90
15819;DHT22;8010;53.986;12.106;2023-07-09T06:40:24;20.00;99.90
15819;DHT22;8010;53.986;12.106;2023-07-09T06:42:50;20.10;99.90
15819;DHT22;8010;53.986;12.106;2023-07-09T06:45:16;20.20;99.90
15819;DHT22;8010;53.986;12.106;2023-07-09T06:47:41;20.40;99.90
15819;DHT22;8010;53.986;12.106;2023-07-09T06:50:07;20.60;99.90
15819;DHT22;8010;53.986;12.106;2023-07-09T06:52:33;20.80;99.90
15819;DHT22;8010;53.986;12.106;2023-07-09T06:54:58;21.00;99.90
15819;DHT22;8010;53.986;12.106;2023-07-09T06:57:24;21.10;99.90
15819;DHT22;8010;53.986;12.106;2023-07-09T06:59:49;21.30;99.90
15819;DHT22;8010;53.986;12.106;2023-07-09T07:02:15;21.50;99.90
15819;DHT22;8010;53.986;12.106;2023-07-09T07:04:40;21.60;99.90
15819;DHT22;8010;53.986;12.106;2023-07-09T07:07:07;21.80;99.90
15819;DHT22;8010;53.986;12.106;2023-07-09T07:09:32;21.90;99.90
15819;DHT22;8010;53.986;12.106;2023-07-09T07:11:58;22.00;99.90
15819;DHT22;8010;53.986;12.106;2023-07-09T07:14:23;22.10;99.90
15819;DHT22;8010;53.986;12.106;2023-07-09T07:16:50;22.20;99.90
15819;DHT22;8010;53.986;12.106;2023-07-09T07:19:15;22.30;99.90
15819;DHT22;8010;53.986;12.106;2023-07-09T07:21:40;22.40;99.90
15819;DHT22;8010;53.986;12.106;2023-07-09T07:24:06;22.50;99.90
15819;DHT22;8010;53.986;12.106;2023-07-09T07:26:32;22.60;99.90
15819;DHT22;8010;53.986;12.106;2023-07-09T07:28:57;22.70;99.90
15819;DHT22;8010;53.986;12.106;2023-07-09T07:31:23;22.80;99.90
15819;DHT22;8010;53.986;12.106;2023-07-09T07:33:48;22.80;99.90
15819;DHT22;8010;53.986;12.106;2023-07-09T07:36:14;22.90;99.90
15819;DHT22;8010;53.986;12.106;2023-07-09T07:38:39;23.10;99.90
15819;DHT22;8010;53.986;12.106;2023-07-09T07:41:05;23.20;99.90
15819;DHT22;8010;53.986;12.106;2023-07-09T07:43:30;23.40;99.90
15819;DHT22;8010;53.986;12.106;2023-07-09T07:45:56;23.60;99.90
15819;DHT22;8010;53.986;12.106;2023-07-09T07:48:21;23.70;99.90
15819;DHT22;8010;53.986;12.106;2023-07-09T07:50:47;23.80;99.90
15819;DHT22;8010;53.986;12.106;2023-07-09T07:53:13;24.00;99.90
15819;DHT22;8010;53.986;12.106;2023-07-09T07:55:41;24.10;99.90
15819;DHT22;8010;53.986;12.106;2023-07-09T07:58:10;24.30;99.90
15819;DHT22;8010;53.986;12.106;2023-07-09T08:00:36;24.60;99.90
15819;DHT22;8010;53.986;12.106;2023-07-09T08:03:03;24.80;99.90
15819;DHT22;8010;53.986;12.106;2023-07-09T08:05:28;24.90;99.90
15819;DHT22;8010;53.986;12.106;2023-07-09T08:07:54;25.20;99.90
15819;DHT22;8010;53.986;12.106;2023-07-09T08:10:19;25.20;99.90
15819;DHT22;8010;53.986;12.106;2023-07-09T08:12:45;25.20;99.90
15819;DHT22;8010;53.986;12.106;2023-07-09T08:15:11;25.30;99.90
15819;DHT22;8010;53.986;12.106;2023-07-09T08:17:36;25.30;99.90
15819;DHT22;8010;53.986;12.106;2023-07-09T08:20:02;25.40;99.90
15819;DHT22;8010;53.986;12.106;2023-07-09T08:22:27;25.50;99.90
15819;DHT22;8010;53.986;12.106;2023-07-09T08:24:53;25.50;99.90
15819;DHT22;8010;53.986;12.106;2023-07-09T08:27:19;25.40;99.90
15819;DHT22;8010;53.986;12.106;2023-07-09T08:29:45;25.40;99.90
15819;DHT22;8010;53.986;12.106;2023-07-09T08:32:11;25.30;99.90
15819;DHT22;8010;53.986;12.106;2023-07-09T08:34:38;25.40;99.90
15819;DHT22;8010;53.986;12.106;2023-07-09T08:37:06;25.50;99.90
15819;DHT22;8010;53.986;12.106;2023-07-09T08:39:31;25.60;99.90
15819;DHT22;8010;53.986;12.106;2023-07-09T08:42:03;25.80;99.90
15819;DHT22;8010;53.986;12.106;2023-07-09T08:47:14;26.40;99.90
15819;DHT22;8010;53.986;12.106;2023-07-09T08:49:58;26.60;99.90
15819;DHT22;8010;53.986;12.106;2023-07-09T08:52:30;26.90;99.90
15819;DHT22;8010;53.986;12.106;2023-07-09T08:55:00;27.10;99.90
15819;DHT22;8010;53.986;12.106;2023-07-09T08:57:34;27.20;99.90
15819;DHT22;8010;53.986;12.106;2023-07-09T09:00:05;27.40;99.90
15819;DHT22;8010;53.986;12.106;2023-07-09T09:02:44;27.70;99.90
15819;DHT22;8010;53.986;12.106;2023-07-09T09:05:14;27.80;99.90
15819;DHT22;8010;53.986;12.106;2023-07-09T09:07:43;28.10;99.90
15819;DHT22;8010;53.986;12.106;2023-07-09T09:10:18;28.20;99.90
15819;DHT22;8010;53.986;12.106;2023-07-09T09:13:01;28.30;99.90
15819;DHT22;8010;53.986;12.106;2023-07-09T09:15:30;28.40;99.90
15819;DHT22;8010;53.986;12.106;2023-07-09T09:18:09;28.70;99.90
15819;DHT22;8010;53.986;12.106;2023-07-09T09:20:37;28.70;99.90
15819;DHT22;8010;53.986;12.106;2023-07-09T09:25:33;29.20;99.90
15819;DHT22;8010;53.986;12.106;2023-07-09T09:28:01;29.40;99.90
15819;DHT22;8010;53.986;12.106;2023-07-09T09:30:27;29.50;99.90
15819;DHT22;8010;53.986;12.106;2023-07-09T09:32:57;29.60;99.90
15819;DHT22;8010;53.986;12.106;2023-07-09T09:35:33;29.80;99.90
15819;DHT22;8010;53.986;12.106;2023-07-09T09:38:00;30.00;99.90
15819;DHT22;8010;53.986;12.106;2023-07-09T09:40:28;30.10;99.90
15819;DHT22;8010;53.986;12.106;2023-07-09T09:42:56;30.20;99.90
15819;DHT22;8010;53.986;12.106;2023-07-09T09:45:43;30.20;99.90
15819;DHT22;8010;53.986;12.106;2023-07-09T09:48:20;30.40;99.90
15819;DHT22;8010;53.986;12.106;2023-07-09T09:50:47;30.50;99.90
15819;DHT22;8010;53.986;12.106;2023-07-09T09:53:20;30.70;99.90
15819;DHT22;8010;53.986;12.106;2023-07-09T09:55:47;30.90;99.90
15819;DHT22;8010;53.986;12.106;2023-07-09T09:58:17;30.80;99.90
15819;DHT22;8010;53.986;12.106;2023-07-09T10:00:53;30.90;99.90
15819;DHT22;8010;53.986;12.106;2023-07-09T10:03:20;31.00;99.90
15819;DHT22;8010;53.986;12.106;2023-07-09T10:05:51;31.20;99.90
15819;DHT22;8010;53.986;12.106;2023-07-09T10:11:16;31.50;99.00
15819;DHT22;8010;53.986;12.106;2023-07-09T10:13:45;31.50;97.40
15819;DHT22;8010;53.986;12.106;2023-07-09T10:16:26;31.60;99.40
15819;DHT22;8010;53.986;12.106;2023-07-09T10:19:12;31.80;99.20
15819;DHT22;8010;53.986;12.106;2023-07-09T10:21:46;31.80;97.40
15819;DHT22;8010;53.986;12.106;2023-07-09T10:40:43;32.30;96.30
15819;DHT22;8010;53.986;12.106;2023-07-09T10:46:18;32.70;94.80
15819;DHT22;8010;53.986;12.106;2023-07-09T10:48:47;32.90;95.10
15819;DHT22;8010;53.986;12.106;2023-07-09T10:53:51;33.00;94.50
15819;DHT22;8010;53.986;12.106;2023-07-09T10:56:23;32.90;94.40
15819;DHT22;8010;53.986;12.106;2023-07-09T11:01:52;33.10;93.80
15819;DHT22;8010;53.986;12.106;2023-07-09T11:07:18;33.60;93.40
15819;DHT22;8010;53.986;12.106;2023-07-09T11:09:48;33.60;94.50
15819;DHT22;8010;53.986;12.106;2023-07-09T11:12:20;33.70;94.40
15819;DHT22;8010;53.986;12.106;2023-07-09T11:15:00;33.90;93.50
15819;DHT22;8010;53.986;12.106;2023-07-09T11:17:28;33.80;93.20
15819;DHT22;8010;53.986;12.106;2023-07-09T11:19:58;33.80;92.40
15819;DHT22;8010;53.986;12.106;2023-07-09T11:22:35;33.90;93.40
15819;DHT22;8010;53.986;12.106;2023-07-09T11:25:09;33.90;92.10
15819;DHT22;8010;53.986;12.106;2023-07-09T11:27:46;34.10;94.10
15819;DHT22;8010;53.986;12.106;2023-07-09T11:30:28;34.20;92.30
15819;DHT22;8010;53.986;12.106;2023-07-09T11:33:18;34.30;91.90
15819;DHT22;8010;53.986;12.106;2023-07-09T11:35:47;34.40;91.90
15819;DHT22;8010;53.986;12.106;2023-07-09T11:38:22;34.40;92.20
15819;DHT22;8010;53.986;12.106;2023-07-09T11:40:53;34.60;92.00
15819;DHT22;8010;53.986;12.106;2023-07-09T11:43:48;34.60;90.60
15819;DHT22;8010;53.986;12.106;2023-07-09T11:46:18;34.50;91.00
15819;DHT22;8010;53.986;12.106;2023-07-09T11:48:45;34.80;91.90
15819;DHT22;8010;53.986;12.106;2023-07-09T11:51:16;34.80;90.10
15819;DHT22;8010;53.986;12.106;2023-07-09T11:53:53;35.00;91.10
15819;DHT22;8010;53.986;12.106;2023-07-09T11:56:21;35.00;89.60
15819;DHT22;8010;53.986;12.106;2023-07-09T11:58:55;35.30;88.60
15819;DHT22;8010;53.986;12.106;2023-07-09T12:01:25;35.30;90.00
15819;DHT22;8010;53.986;12.106;2023-07-09T12:03:52;35.40;87.40
15819;DHT22;8010;53.986;12.106;2023-07-09T12:06:27;35.40;85.10
15819;DHT22;8010;53.986;12.106;2023-07-09T12:08:53;35.50;88.50
15819;DHT22;8010;53.986;12.106;2023-07-09T12:11:25;35.50;88.10
15819;DHT22;8010;53.986;12.106;2023-07-09T12:13:51;35.60;88.90
15819;DHT22;8010;53.986;12.106;2023-07-09T12:18:45;35.90;90.10
15819;DHT22;8010;53.986;12.106;2023-07-09T12:21:11;36.10;88.80
15819;DHT22;8010;53.986;12.106;2023-07-09T12:23:40;36.00;86.10
15819;DHT22;8010;53.986;12.106;2023-07-09T12:26:10;35.80;85.10
15819;DHT22;8010;53.986;12.106;2023-07-09T12:28:37;35.70;84.40
15819;DHT22;8010;53.986;12.106;2023-07-09T12:31:02;35.90;89.30
15819;DHT22;8010;53.986;12.106;2023-07-09T12:33:28;36.00;86.90
15819;DHT22;8010;53.986;12.106;2023-07-09T12:36:02;36.10;86.20
15819;DHT22;8010;53.986;12.106;2023-07-09T12:38:40;36.10;87.20
15819;DHT22;8010;53.986;12.106;2023-07-09T12:41:18;36.20;87.10
15819;DHT22;8010;53.986;12.106;2023-07-09T12:43:44;36.30;86.60
15819;DHT22;8010;53.986;12.106;2023-07-09T12:46:10;36.20;86.60
15819;DHT22;8010;53.986;12.106;2023-07-09T12:48:36;36.30;84.00
15819;DHT22;8010;53.986;12.106;2023-07-09T12:51:07;36.20;86.40
15819;DHT22;8010;53.986;12.106;2023-07-09T12:53:33;36.20;84.30
15819;DHT22;8010;53.986;12.106;2023-07-09T12:56:00;36.30;88.20
15819;DHT22;8010;53.986;12.106;2023-07-09T12:58:29;36.50;83.80
15819;DHT22;8010;53.986;12.106;2023-07-09T13:00:56;36.60;86.80
15819;DHT22;8010;53.986;12.106;2023-07-09T13:03:28;36.50;83.60
15819;DHT22;8010;53.986;12.106;2023-07-09T13:08:58;36.50;82.10
15819;DHT22;8010;53.986;12.106;2023-07-09T13:11:25;36.50;83.90
15819;DHT22;8010;53.986;12.106;2023-07-09T13:13:57;36.50;82.70
15819;DHT22;8010;53.986;12.106;2023-07-09T13:16:24;36.60;85.30
15819;DHT22;8010;53.986;12.106;2023-07-09T13:18:50;36.80;82.00
15819;DHT22;8010;53.986;12.106;2023-07-09T13:21:17;36.90;83.30
15819;DHT22;8010;53.986;12.106;2023-07-09T13:23:43;36.70;81.90
15819;DHT22;8010;53.986;12.106;2023-07-09T13:26:09;36.60;84.50
15819;DHT22;8010;53.986;12.106;2023-07-09T13:28:35;36.60;79.80
15819;DHT22;8010;53.986;12.106;2023-07-09T13:31:11;36.60;85.20
15819;DHT22;8010;53.986;12.106;2023-07-09T13:33:38;36.80;85.80
15819;DHT22;8010;53.986;12.106;2023-07-09T13:36:04;36.70;87.00
15819;DHT22;8010;53.986;12.106;2023-07-09T13:38:29;36.90;86.60
15819;DHT22;8010;53.986;12.106;2023-07-09T13:40:58;36.80;85.00
15819;DHT22;8010;53.986;12.106;2023-07-09T13:43:30;36.90;86.40
15819;DHT22;8010;53.986;12.106;2023-07-09T13:45:56;36.90;82.30
15819;DHT22;8010;53.986;12.106;2023-07-09T13:48:22;36.80;83.20
15819;DHT22;8010;53.986;12.106;2023-07-09T13:50:50;36.90;79.90
15819;DHT22;8010;53.986;12.106;2023-07-09T13:53:19;36.80;79.80
15819;DHT22;8010;53.986;12.106;2023-07-09T13:55:46;36.80;81.80
15819;DHT22;8010;53.986;12.106;2023-07-09T13:58:13;36.60;78.40
15819;DHT22;8010;53.986;12.106;2023-07-09T14:00:41;36.70;83.50
15819;DHT22;8010;53.986;12.106;2023-07-09T14:03:23;36.50;78.00
15819;DHT22;8010;53.986;12.106;2023-07-09T14:05:49;36.50;81.40
15819;DHT22;8010;53.986;12.106;2023-07-09T14:08:15;36.40;80.00
15819;DHT22;8010;53.986;12.106;2023-07-09T14:10:42;36.50;82.20
15819;DHT22;8010;53.986;12.106;2023-07-09T14:13:14;36.50;83.10
15819;DHT22;8010;53.986;12.106;2023-07-09T14:15:40;36.40;81.90
15819;DHT22;8010;53.986;12.106;2023-07-09T14:18:15;36.70;81.90
15819;DHT22;8010;53.986;12.106;2023-07-09T14:20:41;36.50;80.60
15819;DHT22;8010;53.986;12.106;2023-07-09T14:23:10;36.60;80.50
15819;DHT22;8010;53.986;12.106;2023-07-09T14:25:37;36.70;83.50
15819;DHT22;8010;53.986;12.106;2023-07-09T14:28:08;36.80;84.50
15819;DHT22;8010;53.986;12.106;2023-07-09T14:30:35;37.00;84.70
15819;DHT22;8010;53.986;12.106;2023-07-09T14:33:00;37.20;83.70
15819;DHT22;8010;53.986;12.106;2023-07-09T14:35:26;37.10;84.60
15819;DHT22;8010;53.986;12.106;2023-07-09T14:37:53;37.10;81.80
15819;DHT22;8010;53.986;12.106;2023-07-09T14:40:20;37.30;81.80
15819;DHT22;8010;53.986;12.106;2023-07-09T14:42:47;37.10;79.80
15819;DHT22;8010;53.986;12.106;2023-07-09T14:45:22;37.10;81.80
15819;DHT22;8010;53.986;12.106;2023-07-09T14:47:49;37.00;79.70
15819;DHT22;8010;53.986;12.106;2023-07-09T14:50:15;37.10;79.50
15819;DHT22;8010;53.986;12.106;2023-07-09T14:52:43;37.10;81.80
15819;DHT22;8010;53.986;12.106;2023-07-09T14:55:21;36.80;79.40
15819;DHT22;8010;53.986;12.106;2023-07-09T14:57:47;36.80;81.80
15819;DHT22;8010;53.986;12.106;2023-07-09T15:00:15;36.70;81.80
15819;DHT22;8010;53.986;12.106;2023-07-09T15:02:42;36.80;80.10
15819;DHT22;8010;53.986;12.106;2023-07-09T15:05:17;36.90;83.30
15819;DHT22;8010;53.986;12.106;2023-07-09T15:07:43;36.80;81.50
15819;DHT22;8010;53.986;12.106;2023-07-09T15:10:21;36.60;80.20
15819;DHT22;8010;53.986;12.106;2023-07-09T15:12:47;36.50;82.60
15819;DHT22;8010;53.986;12.106;2023-07-09T15:17:39;36.10;80.60
15819;DHT22;8010;53.986;12.106;2023-07-09T15:20:05;35.90;83.90
15819;DHT22;8010;53.986;12.106;2023-07-09T15:22:35;35.70;83.80
15819;DHT22;8010;53.986;12.106;2023-07-09T15:25:01;35.60;85.40
15819;DHT22;8010;53.986;12.106;2023-07-09T15:27:27;35.50;88.70
15819;DHT22;8010;53.986;12.106;2023-07-09T15:29:52;35.40;90.40
15819;DHT22;8010;53.986;12.106;2023-07-09T15:32:18;35.30;85.80
15819;DHT22;8010;53.986;12.106;2023-07-09T15:34:44;35.10;87.20
15819;DHT22;8010;53.986;12.106;2023-07-09T15:37:15;34.80;90.60
15819;DHT22;8010;53.986;12.106;2023-07-09T15:39:41;34.60;87.90
15819;DHT22;8010;53.986;12.106;2023-07-09T15:42:11;34.40;90.90
15819;DHT22;8010;53.986;12.106;2023-07-09T15:44:37;34.20;89.50
15819;DHT22;8010;53.986;12.106;2023-07-09T15:47:03;34.10;89.50
15819;DHT22;8010;53.986;12.106;2023-07-09T15:49:30;34.20;89.70
15819;DHT22;8010;53.986;12.106;2023-07-09T15:51:55;34.30;88.10
15819;DHT22;8010;53.986;12.106;2023-07-09T15:54:23;34.50;90.60
15819;DHT22;8010;53.986;12.106;2023-07-09T15:56:51;34.60;91.20
15819;DHT22;8010;53.986;12.106;2023-07-09T16:01:53;35.00;87.70
15819;DHT22;8010;53.986;12.106;2023-07-09T16:04:19;34.80;88.70
15819;DHT22;8010;53.986;12.106;2023-07-09T16:06:44;34.60;89.50
15819;DHT22;8010;53.986;12.106;2023-07-09T16:09:11;34.50;88.70
15819;DHT22;8010;53.986;12.106;2023-07-09T16:11:38;34.50;89.60
15819;DHT22;8010;53.986;12.106;2023-07-09T16:14:17;34.30;88.70
15819;DHT22;8010;53.986;12.106;2023-07-09T16:16:44;34.50;90.40
15819;DHT22;8010;53.986;12.106;2023-07-09T16:19:11;34.40;90.50
15819;DHT22;8010;53.986;12.106;2023-07-09T16:21:37;34.30;89.00